Time;durP1;ratioP1;P1;durP2;ratioP2;P2;SDS_P1;SDS_P2;PMS_P1;PMS_P2;Temp;Humidity;BMP_temperature;BMP_pressure;BME280_temperature;BME280_humidity;BME280_pressure;Samples;Min_cycle;Max_cycle;Signal;HPM_P1;HPM_P2
2024/01/11 00:01:26;;;;;;;41.60;17.27;;;;;;;1.05;61.35;95498.44;6137290;23;20051;-85
2024/01/11 00:03:52;;;;;;;40.70;16.35;;;;;;;1.01;61.72;95491.94;6187491;23;20004;-85
2024/01/11 00:06:17;;;;;;;41.45;16.15;;;;;;;1.28;59.96;95492.47;6187194;23;20084;-85
2024/01/11 00:08:43;;;;;;;40.58;17.00;;;;;;;1.27;60.39;95500.25;6163092;23;20024;-85
2024/01/11 00:11:08;;;;;;;37.78;16.38;;;;;;;1.25;60.87;95497.00;6187165;23;20012;-84
2024/01/11 00:13:34;;;;;;;39.83;15.82;;;;;;;1.24;60.34;95495.34;6162351;23;20011;-84
2024/01/11 00:16:03;;;;;;;38.30;15.98;;;;;;;1.12;60.78;95507.31;6186580;23;20062;-83
2024/01/11 00:18:28;;;;;;;36.38;15.23;;;;;;;1.18;60.25;95494.06;6162740;23;20005;-84
2024/01/11 00:20:53;;;;;;;35.50;16.27;;;;;;;0.93;60.97;95500.16;6162855;23;20004;-85
2024/01/11 00:23:19;;;;;;;40.92;17.60;;;;;;;0.24;63.32;95510.22;6137522;23;20111;-85
2024/01/11 00:25:44;;;;;;;34.97;16.42;;;;;;;0.37;62.29;95506.66;6137105;23;20005;-84
2024/01/11 00:28:10;;;;;;;37.35;16.05;;;;;;;0.50;62.79;95495.59;6138418;23;20004;-84
2024/01/11 00:30:35;;;;;;;37.08;16.85;;;;;;;0.48;62.64;95497.44;6151835;23;20100;-84
2024/01/11 00:33:01;;;;;;;36.75;16.05;;;;;;;0.58;62.46;95501.78;6079105;23;20064;-84
2024/01/11 00:35:26;;;;;;;37.28;16.27;;;;;;;0.59;61.60;95502.59;6128078;23;20009;-84
2024/01/11 00:37:52;;;;;;;41.10;17.10;;;;;;;0.48;62.50;95503.38;6079531;23;20013;-84
2024/01/11 00:40:17;;;;;;;34.65;15.88;;;;;;;0.44;62.80;95504.50;6103933;23;20016;-84
2024/01/11 00:42:43;;;;;;;38.28;16.30;;;;;;;0.06;64.08;95514.84;6103832;23;20006;-84
2024/01/11 00:45:08;;;;;;;39.25;16.45;;;;;;;-0.06;64.48;95507.13;6079126;23;20012;-84
2024/01/11 00:47:34;;;;;;;35.40;14.50;;;;;;;0.47;62.36;95503.47;6078936;23;20013;-84
2024/01/11 00:49:59;;;;;;;41.28;15.98;;;;;;;0.19;62.83;95500.28;6103251;23;20013;-84
2024/01/11 00:52:26;;;;;;;40.95;16.27;;;;;;;0.19;62.90;95510.50;6103819;23;20013;-85
2024/01/11 00:54:51;;;;;;;38.67;15.70;;;;;;;0.23;63.50;95501.72;6104537;23;20016;-84
2024/01/11 00:57:20;;;;;;;37.70;15.48;;;;;;;0.25;62.79;95517.78;6105297;23;20009;-84
2024/01/11 00:59:46;;;;;;;38.03;16.40;;;;;;;0.39;62.39;95509.94;6081863;23;20017;-84
2024/01/11 01:02:11;;;;;;;37.97;15.57;;;;;;;0.45;62.60;95510.44;6105660;23;20009;-84
2024/01/11 01:04:38;;;;;;;37.92;16.42;;;;;;;0.40;62.22;95510.78;6105195;23;20005;-85
2024/01/11 01:07:04;;;;;;;38.70;15.85;;;;;;;-0.03;63.92;95501.78;6105649;23;20040;-84
2024/01/11 01:09:33;;;;;;;38.55;15.63;;;;;;;0.07;63.73;95498.59;6129493;23;20010;-84
2024/01/11 01:11:59;;;;;;;35.00;15.18;;;;;;;0.29;63.07;95521.75;6081064;23;20009;-85
2024/01/11 01:14:24;;;;;;;37.85;16.17;;;;;;;0.12;63.52;95509.31;6081084;23;20060;-85
2024/01/11 01:16:49;;;;;;;36.78;15.50;;;;;;;0.39;62.48;95511.69;6080404;23;20002;-84
2024/01/11 01:19:15;;;;;;;38.55;16.67;;;;;;;0.04;63.67;95524.34;6129949;23;20009;-85
2024/01/11 01:21:40;;;;;;;37.03;15.80;;;;;;;0.29;63.16;95526.88;6081422;23;20014;-84
2024/01/11 01:24:09;;;;;;;38.28;15.23;;;;;;;0.66;61.83;95521.72;6129701;23;20013;-84
2024/01/11 01:26:35;;;;;;;35.75;15.43;;;;;;;0.80;61.94;95525.03;6129351;23;20001;-84
2024/01/11 01:29:01;;;;;;;37.90;15.68;;;;;;;0.35;62.77;95517.94;6080724;23;20025;-84
2024/01/11 01:31:26;;;;;;;35.67;15.52;;;;;;;0.64;62.04;95520.19;6079027;23;20021;-84
2024/01/11 01:33:52;;;;;;;37.15;16.17;;;;;;;0.61;61.35;95507.59;6104735;23;20104;-84
2024/01/11 01:36:17;;;;;;;40.05;15.50;;;;;;;0.48;61.82;95520.47;6105282;23;20010;-85
2024/01/11 01:38:43;;;;;;;38.22;16.48;;;;;;;0.32;62.32;95534.31;6081220;23;20128;-85
2024/01/11 01:41:08;;;;;;;40.63;16.15;;;;;;;0.27;62.62;95528.72;6080326;23;20009;-84
2024/01/11 01:43:33;;;;;;;38.42;16.35;;;;;;;0.65;61.71;95535.44;6104875;23;20014;-84
2024/01/11 01:46:00;;;;;;;40.58;16.88;;;;;;;0.06;62.90;95548.09;6080279;23;20044;-84
2024/01/11 01:48:26;;;;;;;38.47;15.63;;;;;;;0.75;61.28;95544.09;6104510;23;20005;-84
2024/01/11 01:50:54;;;;;;;39.28;16.70;;;;;;;0.23;62.71;95541.81;6129111;23;20009;-85
2024/01/11 01:53:22;;;;;;;40.05;14.98;;;;;;;0.16;62.90;95549.91;6081275;23;20067;-84
2024/01/11 01:55:52;;;;;;;40.20;16.52;;;;;;;0.07;62.66;95555.66;6129018;23;20006;-84
2024/01/11 01:58:18;;;;;;;36.10;15.43;;;;;;;0.54;61.61;95548.19;6129299;23;20002;-84
2024/01/11 02:00:45;;;;;;;37.75;16.20;;;;;;;0.75;61.15;95556.91;6080641;23;20030;-84
2024/01/11 02:03:12;;;;;;;38.47;16.60;;;;;;;0.58;61.18;95559.84;6129139;23;20005;-84
2024/01/11 02:05:38;;;;;;;35.47;15.77;;;;;;;0.44;62.20;95545.47;6104458;23;20010;-85
2024/01/11 02:08:09;;;;;;;36.15;15.25;;;;;;;0.27;62.21;95553.50;6104776;23;20014;-84
2024/01/11 02:10:37;;;;;;;36.95;15.38;;;;;;;0.43;62.05;95548.13;6128371;23;20008;-84
2024/01/11 02:13:04;;;;;;;39.17;16.30;;;;;;;0.63;61.58;95568.03;6104726;23;20006;-84
2024/01/11 02:15:31;;;;;;;36.55;16.35;;;;;;;0.55;62.02;95560.03;6128775;23;20043;-84
2024/01/11 02:17:57;;;;;;;34.65;14.90;;;;;;;0.48;61.57;95564.78;6080232;23;20009;-84
2024/01/11 02:20:22;;;;;;;34.20;14.43;;;;;;;0.31;62.08;95572.81;6104601;23;20009;-84
2024/01/11 02:22:56;;;;;;;34.50;14.05;;;;;;;0.39;61.90;95567.97;6128505;23;20020;-84
2024/01/11 02:25:21;;;;;;;34.00;13.73;;;;;;;0.60;61.32;95568.22;6128799;23;20029;-84
2024/01/11 02:27:50;;;;;;;34.53;14.52;;;;;;;0.34;62.05;95565.75;6128525;23;20016;-84
2024/01/11 02:30:17;;;;;;;36.30;15.38;;;;;;;0.58;60.84;95575.19;6104106;23;20028;-85
2024/01/11 02:32:48;;;;;;;34.55;15.55;;;;;;;0.57;60.79;95568.44;6129154;23;20005;-85
2024/01/11 02:35:15;;;;;;;36.80;15.77;;;;;;;0.32;62.06;95565.00;6128560;23;20017;-84
2024/01/11 02:37:40;;;;;;;43.13;17.02;;;;;;;0.60;61.58;95554.63;6128637;23;20016;-84
2024/01/11 02:40:08;;;;;;;33.95;14.63;;;;;;;0.77;60.90;95567.84;6104488;23;20017;-84
2024/01/11 02:42:34;;;;;;;37.90;15.93;;;;;;;0.49;61.56;95568.97;6128537;23;20002;-84
2024/01/11 02:45:00;;;;;;;35.22;13.95;;;;;;;0.43;62.26;95568.59;6104161;23;20010;-85
2024/01/11 02:47:25;;;;;;;35.72;14.77;;;;;;;0.42;62.14;95572.91;6128925;23;20060;-84
2024/01/11 02:49:51;;;;;;;39.00;15.70;;;;;;;-0.22;63.74;95566.13;6128749;23;20033;-84
2024/01/11 02:52:17;;;;;;;39.30;15.48;;;;;;;0.49;62.15;95552.81;6128354;23;20006;-84
2024/01/11 02:54:42;;;;;;;35.17;14.27;;;;;;;0.39;61.80;95557.75;6128254;23;20010;-84
2024/01/11 02:57:08;;;;;;;36.30;14.68;;;;;;;0.34;61.92;95564.91;6128629;23;20043;-84
2024/01/11 02:59:33;;;;;;;34.58;13.93;;;;;;;0.52;61.39;95557.72;6103295;23;20013;-85
2024/01/11 03:01:59;;;;;;;34.08;14.75;;;;;;;0.54;60.79;95564.34;6079896;23;20064;-84
2024/01/11 03:04:24;;;;;;;33.40;14.60;;;;;;;0.54;60.68;95563.53;6128246;23;20005;-84
2024/01/11 03:06:49;;;;;;;37.67;15.05;;;;;;;0.72;60.66;95562.25;6080506;23;20013;-85
2024/01/11 03:09:15;;;;;;;34.70;14.95;;;;;;;0.29;61.50;95543.97;6129055;23;20088;-85
2024/01/11 03:11:40;;;;;;;30.00;13.63;;;;;;;0.69;61.02;95559.09;6127948;23;20009;-84
2024/01/11 03:14:07;;;;;;;30.02;14.38;;;;;;;0.67;60.37;95559.19;6080127;23;20075;-84
2024/01/11 03:16:32;;;;;;;35.42;15.48;;;;;;;0.10;62.03;95550.34;6103774;23;20005;-85
2024/01/11 03:18:58;;;;;;;36.97;14.98;;;;;;;0.16;62.04;95546.56;6128839;23;20012;-85
2024/01/11 03:21:23;;;;;;;35.28;14.90;;;;;;;0.40;61.81;95556.84;6080293;23;20014;-84
2024/01/11 03:23:50;;;;;;;33.30;14.82;;;;;;;0.35;61.66;95551.22;6101755;23;20083;-84
2024/01/11 03:26:17;;;;;;;35.88;14.80;;;;;;;0.43;61.53;95555.78;6103559;23;20005;-85
2024/01/11 03:28:43;;;;;;;31.90;14.48;;;;;;;0.01;63.12;95538.19;6128366;23;20073;-84
2024/01/11 03:31:09;;;;;;;34.80;14.45;;;;;;;0.49;61.71;95551.06;6127792;23;20013;-84
2024/01/11 03:33:35;;;;;;;34.30;14.25;;;;;;;0.63;61.22;95537.31;6128219;23;20009;-84
2024/01/11 03:36:07;;;;;;;33.90;14.82;;;;;;;0.76;60.80;95552.59;6127674;23;20116;-85
2024/01/11 03:38:33;;;;;;;35.28;15.25;;;;;;;0.87;60.61;95542.41;6128569;23;20002;-85
2024/01/11 03:41:01;;;;;;;36.75;14.70;;;;;;;1.00;59.87;95544.91;6103961;23;20021;-84
2024/01/11 03:43:26;;;;;;;31.88;14.43;;;;;;;0.89;60.23;95539.75;6104017;23;20021;-84
2024/01/11 03:45:52;;;;;;;39.55;15.77;;;;;;;0.71;60.53;95540.13;6079430;23;20009;-84
2024/01/11 03:48:19;;;;;;;34.45;15.13;;;;;;;1.05;59.37;95540.28;6104517;23;20033;-85
2024/01/11 03:50:45;;;;;;;37.95;14.55;;;;;;;0.95;60.16;95536.72;6103956;23;20009;-84
2024/01/11 03:53:10;;;;;;;38.85;15.75;;;;;;;1.13;59.52;95544.84;6128201;23;20012;-84
2024/01/11 03:55:35;;;;;;;38.00;15.70;;;;;;;0.71;61.29;95544.44;6103247;23;20017;-85
2024/01/11 03:58:01;;;;;;;36.47;15.45;;;;;;;0.79;60.63;95542.13;6079797;23;20005;-85
2024/01/11 04:00:26;;;;;;;35.45;15.73;;;;;;;0.72;60.53;95531.53;6104134;23;20029;-85
2024/01/11 04:02:53;;;;;;;35.63;14.95;;;;;;;0.84;60.11;95527.28;6079726;23;20005;-86
2024/01/11 04:05:19;;;;;;;40.13;15.68;;;;;;;1.08;59.99;95536.66;6103518;23;20092;-87
2024/01/11 04:07:44;;;;;;;37.08;15.48;;;;;;;0.92;60.31;95527.53;6079917;23;20044;-85
2024/01/11 04:10:11;;;;;;;35.95;14.82;;;;;;;1.05;60.08;95524.91;6128414;23;20009;-85
2024/01/11 04:12:37;;;;;;;37.97;15.43;;;;;;;1.22;59.13;95526.25;6103435;23;20009;-85
2024/01/11 04:15:03;;;;;;;38.85;16.00;;;;;;;1.12;60.22;95541.47;6127951;23;20063;-85
2024/01/11 04:17:29;;;;;;;36.42;15.63;;;;;;;1.13;59.87;95537.16;6128092;23;20080;-85
2024/01/11 04:19:54;;;;;;;36.78;14.57;;;;;;;1.33;59.44;95539.09;6127956;23;20076;-85
2024/01/11 04:22:20;;;;;;;37.95;15.20;;;;;;;1.05;59.81;95527.47;6103768;23;20076;-85
2024/01/11 04:24:45;;;;;;;37.22;15.68;;;;;;;1.20;59.41;95517.00;6103601;23;20072;-84
2024/01/11 04:27:11;;;;;;;36.60;15.07;;;;;;;1.14;59.90;95519.13;6104025;23;20024;-85
2024/01/11 04:29:36;;;;;;;37.60;15.68;;;;;;;1.22;59.92;95523.69;6105679;23;20030;-85
2024/01/11 04:32:02;;;;;;;36.83;15.68;;;;;;;1.22;60.02;95522.84;6106062;23;20088;-85
2024/01/11 04:34:28;;;;;;;34.78;14.88;;;;;;;1.45;59.45;95527.09;6105537;23;20013;-85
2024/01/11 04:36:56;;;;;;;38.95;15.57;;;;;;;1.21;59.42;95519.47;6081914;23;20020;-85
2024/01/11 04:39:21;;;;;;;40.95;15.45;;;;;;;1.38;59.41;95512.28;6106287;23;20018;-85
2024/01/11 04:41:47;;;;;;;41.55;16.52;;;;;;;1.59;59.23;95517.56;6105075;23;20009;-85
2024/01/11 04:44:13;;;;;;;39.13;15.75;;;;;;;1.40;59.19;95516.38;6105765;23;20010;-86
2024/01/11 04:46:38;;;;;;;39.35;15.90;;;;;;;1.46;59.64;95521.03;6105546;23;20005;-85
2024/01/11 04:49:05;;;;;;;40.03;15.57;;;;;;;1.29;59.61;95524.03;6129781;23;20014;-85
2024/01/11 04:51:32;;;;;;;40.20;16.00;;;;;;;1.37;59.71;95524.28;6105880;23;20025;-85
2024/01/11 04:53:58;;;;;;;38.10;15.02;;;;;;;1.34;59.52;95527.88;6129800;23;20012;-85
2024/01/11 04:56:24;;;;;;;39.78;15.68;;;;;;;1.53;59.11;95526.53;6081465;23;20079;-85
2024/01/11 04:58:51;;;;;;;38.47;16.10;;;;;;;1.26;59.46;95514.03;6081635;23;20033;-85
2024/01/11 05:01:17;;;;;;;39.53;16.02;;;;;;;1.20;59.76;95522.13;6105323;23;20005;-85
2024/01/11 05:03:46;;;;;;;44.40;16.65;;;;;;;0.95;60.33;95513.69;6105880;23;20005;-85
2024/01/11 05:06:16;;;;;;;40.08;16.45;;;;;;;1.12;60.06;95520.97;6129368;23;20036;-85
2024/01/11 05:08:44;;;;;;;35.83;15.35;;;;;;;1.24;59.75;95528.66;6127848;23;20013;-85
2024/01/11 05:11:24;;;;;;;38.38;15.50;;;;;;;1.24;59.45;95526.09;6127883;23;20017;-85
2024/01/11 05:13:51;;;;;;;38.28;15.68;;;;;;;1.18;59.57;95509.44;6128465;23;20013;-85
2024/01/11 05:16:25;;;;;;;40.35;15.82;;;;;;;1.10;59.44;95527.94;6128067;23;20009;-85
2024/01/11 05:18:52;;;;;;;38.92;16.42;;;;;;;0.37;61.06;95521.22;6127996;23;20132;-84
2024/01/11 05:21:18;;;;;;;38.83;15.55;;;;;;;0.93;59.88;95536.88;6129388;23;20086;-85
2024/01/11 05:23:44;;;;;;;38.88;15.95;;;;;;;0.88;60.53;95525.31;6129849;23;20006;-85
2024/01/11 05:26:10;;;;;;;36.47;15.85;;;;;;;0.73;60.61;95522.91;6105037;23;20085;-85
2024/01/11 05:28:35;;;;;;;32.95;14.00;;;;;;;1.10;59.59;95527.13;6129609;23;20030;-85
2024/01/11 05:31:01;;;;;;;39.03;15.93;;;;;;;1.31;58.65;95537.53;6080508;23;20108;-85
2024/01/11 05:33:26;;;;;;;36.30;14.93;;;;;;;0.93;59.57;95512.97;6129454;23;20036;-85
2024/01/11 05:35:55;;;;;;;39.53;15.77;;;;;;;0.81;60.01;95531.78;6129153;23;20005;-85
2024/01/11 05:38:21;;;;;;;39.63;15.65;;;;;;;0.78;59.91;95518.28;6129025;23;20044;-85
2024/01/11 05:40:46;;;;;;;38.60;15.48;;;;;;;0.78;60.42;95512.31;6104149;23;20088;-85
2024/01/11 05:43:14;;;;;;;39.55;15.30;;;;;;;0.84;60.88;95526.44;6105107;23;20013;-85
2024/01/11 05:45:40;;;;;;;38.50;15.07;;;;;;;1.07;59.48;95507.69;6104928;23;20008;-85
2024/01/11 05:48:06;;;;;;;38.97;15.02;;;;;;;0.58;60.71;95503.53;6105267;23;20029;-85
2024/01/11 05:50:31;;;;;;;37.78;14.82;;;;;;;0.96;59.63;95528.13;6080846;23;20013;-85
2024/01/11 05:52:57;;;;;;;36.53;15.10;;;;;;;0.81;60.01;95511.31;6080635;23;20005;-85
2024/01/11 05:55:22;;;;;;;42.00;15.63;;;;;;;1.08;59.61;95523.84;6129447;23;20001;-85
2024/01/11 05:57:48;;;;;;;41.03;15.65;;;;;;;0.60;60.29;95529.03;6104893;23;20013;-85
2024/01/11 06:00:14;;;;;;;37.92;15.32;;;;;;;0.96;59.62;95516.13;6129536;23;20044;-85
2024/01/11 06:02:40;;;;;;;37.88;15.70;;;;;;;0.84;59.91;95526.44;6104522;23;20017;-85
2024/01/11 06:05:08;;;;;;;41.47;15.65;;;;;;;0.42;61.17;95520.88;6129465;23;20005;-85
2024/01/11 06:07:34;;;;;;;43.38;16.88;;;;;;;1.00;59.77;95514.16;6128685;23;20025;-85
2024/01/11 06:10:01;;;;;;;44.33;15.80;;;;;;;1.01;59.81;95526.06;6129063;23;20001;-85
2024/01/11 06:12:26;;;;;;;42.78;15.85;;;;;;;0.84;60.40;95517.03;6080780;23;20096;-85
2024/01/11 06:14:52;;;;;;;43.10;15.55;;;;;;;1.13;59.96;95530.28;6104394;23;20081;-85
2024/01/11 06:17:18;;;;;;;40.75;14.65;;;;;;;1.04;60.08;95527.56;6080651;23;20005;-85
2024/01/11 06:19:44;;;;;;;38.65;16.05;;;;;;;0.95;59.86;95526.47;6080619;23;20017;-85
2024/01/11 06:22:09;;;;;;;43.17;16.38;;;;;;;1.08;60.13;95523.84;6128591;23;20085;-85
2024/01/11 06:24:35;;;;;;;42.72;16.65;;;;;;;1.35;58.96;95533.81;6080071;23;20005;-85
2024/01/11 06:27:00;;;;;;;40.42;16.20;;;;;;;1.15;59.77;95525.06;6128691;23;20004;-86
2024/01/11 06:29:28;;;;;;;37.47;16.10;;;;;;;1.28;59.26;95520.66;6080467;23;20010;-85
2024/01/11 06:31:53;;;;;;;42.22;16.85;;;;;;;1.31;58.95;95522.16;6104433;23;20010;-85
2024/01/11 06:34:19;;;;;;;38.47;15.55;;;;;;;1.30;58.82;95523.13;6104456;23;20019;-85
2024/01/11 06:36:44;;;;;;;37.20;16.10;;;;;;;1.39;58.77;95531.84;6104116;23;20005;-85
2024/01/11 06:39:10;;;;;;;37.38;15.77;;;;;;;1.21;59.11;95518.66;6080325;23;20001;-85
2024/01/11 06:41:35;;;;;;;35.55;14.93;;;;;;;1.32;59.36;95528.94;6128926;23;20021;-85
2024/01/11 06:44:01;;;;;;;38.58;14.98;;;;;;;1.55;58.38;95535.72;6104349;23;20005;-85
2024/01/11 06:46:27;;;;;;;36.05;15.07;;;;;;;1.52;58.24;95548.78;6128408;23;20005;-85
2024/01/11 06:48:52;;;;;;;38.53;15.88;;;;;;;1.51;58.29;95533.53;6080004;23;20040;-85
2024/01/11 06:51:21;;;;;;;41.92;15.55;;;;;;;1.37;58.84;95552.47;6103003;23;20013;-85
2024/01/11 06:53:47;;;;;;;40.70;16.38;;;;;;;1.06;59.06;95559.81;6103725;23;20024;-85
2024/01/11 06:56:21;;;;;;;40.78;16.05;;;;;;;0.94;59.11;95553.03;6128503;23;20005;-85
2024/01/11 06:58:47;;;;;;;38.38;14.02;;;;;;;1.23;58.64;95558.59;6081793;23;20008;-85
2024/01/11 07:01:13;;;;;;;38.97;15.48;;;;;;;0.67;59.81;95572.00;6128237;23;20001;-85
2024/01/11 07:03:39;;;;;;;35.35;14.90;;;;;;;0.26;60.25;95554.41;6127742;23;20016;-85
2024/01/11 07:06:05;;;;;;;42.53;15.82;;;;;;;0.03;61.38;95561.91;6128908;23;20085;-85
2024/01/11 07:08:34;;;;;;;36.08;14.75;;;;;;;0.23;61.24;95581.03;6102851;23;20009;-85
2024/01/11 07:11:03;;;;;;;34.90;13.75;;;;;;;0.28;61.31;95581.50;6103001;23;20009;-85
2024/01/11 07:13:31;;;;;;;38.80;14.65;;;;;;;0.22;61.57;95581.13;6127320;23;20060;-85
2024/01/11 07:15:58;;;;;;;40.97;14.80;;;;;;;0.36;60.63;95588.66;6103477;23;20012;-86
2024/01/11 07:18:25;;;;;;;36.10;14.27;;;;;;;0.18;61.58;95590.75;6128559;23;20025;-85
2024/01/11 07:20:51;;;;;;;36.38;14.00;;;;;;;0.36;61.14;95589.50;6079343;23;20077;-86
2024/01/11 07:23:21;;;;;;;37.00;14.65;;;;;;;0.04;62.51;95590.84;6127764;23;20009;-85
2024/01/11 07:25:46;;;;;;;38.67;15.32;;;;;;;0.08;61.94;95579.53;6078602;23;20051;-85
2024/01/11 07:28:15;;;;;;;40.08;15.32;;;;;;;-0.09;62.06;95593.44;6104142;23;20014;-86
2024/01/11 07:30:40;;;;;;;37.67;15.50;;;;;;;0.27;61.60;95589.31;6104727;23;20144;-86
2024/01/11 07:33:06;;;;;;;37.00;15.57;;;;;;;-0.08;63.02;95595.06;6128600;23;20036;-86
2024/01/11 07:35:31;;;;;;;41.33;15.32;;;;;;;-0.14;62.66;95595.47;6104095;23;20010;-86
2024/01/11 07:40:32;;;;;;;40.58;14.95;;;;;;;0.16;61.52;95585.72;6182493;23;20024;-84
2024/01/11 07:42:57;;;;;;;36.63;14.13;;;;;;;0.02;62.10;95595.25;6157315;23;20004;-85
2024/01/11 07:45:23;;;;;;;34.53;14.43;;;;;;;0.06;61.72;95589.00;6133641;23;20005;-85
2024/01/11 07:47:48;;;;;;;38.15;15.65;;;;;;;0.16;61.52;95588.28;6109073;23;20013;-85
2024/01/11 07:50:14;;;;;;;39.50;14.73;;;;;;;0.43;61.59;95607.78;6158102;23;20128;-85
2024/01/11 07:52:42;;;;;;;37.72;14.73;;;;;;;0.49;60.91;95601.44;6156535;23;20128;-85
2024/01/11 07:55:10;;;;;;;36.58;13.93;;;;;;;0.51;60.42;95594.47;6109694;23;20016;-85
2024/01/11 07:57:40;;;;;;;43.72;15.80;;;;;;;0.46;60.25;95597.34;6133340;23;20068;-85
2024/01/11 08:00:09;;;;;;;36.17;14.70;;;;;;;-0.18;62.14;95605.09;6157615;23;20020;-85
2024/01/11 08:02:35;;;;;;;42.55;16.73;;;;;;;-0.31;62.92;95606.81;6110122;23;20031;-85
2024/01/11 08:05:01;;;;;;;39.00;15.55;;;;;;;-0.12;62.67;95622.56;6159207;23;20096;-85
2024/01/11 08:07:30;;;;;;;39.92;15.43;;;;;;;0.23;62.12;95608.31;6159325;23;20008;-85
2024/01/11 08:09:56;;;;;;;40.33;15.05;;;;;;;0.45;61.33;95612.81;6110708;23;20079;-85
2024/01/11 08:12:24;;;;;;;37.97;15.07;;;;;;;0.45;61.17;95608.50;6159280;23;20009;-85
2024/01/11 08:14:50;;;;;;;36.72;14.90;;;;;;;0.58;60.89;95606.72;6134408;23;20020;-85
2024/01/11 08:17:19;;;;;;;35.55;14.35;;;;;;;0.59;61.08;95620.34;6135405;23;20013;-84
2024/01/11 08:19:44;;;;;;;39.53;14.88;;;;;;;0.88;59.56;95610.63;6159334;23;20009;-85
2024/01/11 08:22:13;;;;;;;32.00;13.07;;;;;;;0.97;59.73;95624.50;6159106;23;20062;-85
2024/01/11 08:24:38;;;;;;;39.20;15.10;;;;;;;0.86;59.65;95632.16;6134523;23;20024;-84
2024/01/11 08:27:05;;;;;;;37.33;14.95;;;;;;;0.87;60.09;95628.66;6134795;23;20051;-85
2024/01/11 08:29:33;;;;;;;41.72;15.35;;;;;;;0.76;60.65;95627.69;6158485;23;20009;-85
2024/01/11 08:32:04;;;;;;;36.35;14.73;;;;;;;0.33;61.72;95625.50;6134292;23;20067;-85
2024/01/11 08:34:29;;;;;;;33.72;14.35;;;;;;;0.30;61.63;95617.22;6159286;23;20049;-85
2024/01/11 08:36:55;;;;;;;38.92;14.70;;;;;;;0.67;60.86;95645.44;6158621;23;20009;-84
2024/01/11 08:39:21;;;;;;;39.22;15.65;;;;;;;0.75;60.26;95653.38;6183535;23;20044;-85
2024/01/11 08:41:47;;;;;;;37.33;14.90;;;;;;;0.58;60.99;95634.06;6158650;23;20017;-84
2024/01/11 08:44:13;;;;;;;37.88;15.15;;;;;;;0.72;60.38;95646.75;6134751;23;20098;-84
2024/01/11 08:49:04;;;;;;;31.35;12.80;;;;;;;1.09;59.18;95649.28;6182785;23;20021;-87
2024/01/11 08:51:30;;;;;;;33.13;15.13;;;;;;;-0.07;61.32;95635.88;6188106;23;20012;-85
2024/01/11 08:53:58;;;;;;;28.63;12.52;;;;;;;0.31;61.59;95636.78;6188303;23;20009;-85
2024/01/11 08:56:24;;;;;;;31.42;12.70;;;;;;;0.27;61.81;95631.06;6163204;23;20019;-85
2024/01/11 08:58:49;;;;;;;26.80;11.32;;;;;;;0.85;60.12;95640.75;6163977;23;20015;-86
2024/01/11 16:49:35;;;;;;;25.83;11.98;;;;;;;-0.39;64.21;95750.44;6211785;23;20031;-85
2024/01/11 16:52:06;;;;;;;32.85;13.75;;;;;;;-0.94;67.61;95756.44;6164003;23;20036;-85
2024/01/11 16:54:31;;;;;;;33.03;12.82;;;;;;;-0.27;64.56;95757.31;6164082;23;20022;-86
2024/01/11 16:56:56;;;;;;;31.52;14.27;;;;;;;-0.85;65.75;95760.97;6187028;23;20000;-85
2024/01/11 16:59:22;;;;;;;29.63;12.52;;;;;;;-0.75;65.99;95743.34;6158830;23;20017;-85
2024/01/11 17:01:47;;;;;;;28.05;12.85;;;;;;;-0.76;66.17;95755.31;6161514;23;20036;-85
2024/01/11 17:04:14;;;;;;;29.40;12.70;;;;;;;-0.93;66.86;95760.63;6137370;23;20009;-85
2024/01/11 17:09:15;;;;;;;28.13;11.25;;;;;;;0.15;62.53;95777.66;6209275;23;20036;-84
2024/01/11 17:11:40;;;;;;;29.77;12.50;;;;;;;0.26;62.04;95771.88;6188896;23;20090;-84
2024/01/11 17:14:06;;;;;;;31.30;12.48;;;;;;;-0.13;63.30;95781.19;6139244;23;20013;-86
2024/01/11 17:16:32;;;;;;;27.77;11.73;;;;;;;0.00;62.65;95787.19;6163828;23;20004;-85
2024/01/11 17:19:01;;;;;;;28.35;11.57;;;;;;;0.07;62.00;95778.16;6163802;23;20096;-85
2024/01/11 17:21:32;;;;;;;27.88;11.23;;;;;;;-0.17;63.10;95788.25;6139420;23;20035;-85
2024/01/11 17:23:57;;;;;;;27.80;10.90;;;;;;;0.30;61.74;95784.34;6164468;23;20004;-84
2024/01/11 17:26:26;;;;;;;27.35;11.55;;;;;;;0.23;61.85;95785.69;6163677;23;20092;-85
2024/01/11 17:28:51;;;;;;;30.30;12.48;;;;;;;0.18;61.30;95785.16;6189099;23;20016;-85
2024/01/11 17:31:17;;;;;;;27.10;11.82;;;;;;;0.04;61.83;95770.72;6188885;23;20004;-85
2024/01/11 17:33:46;;;;;;;32.10;13.43;;;;;;;-0.47;63.48;95796.94;6139565;23;20020;-85
2024/01/11 17:36:12;;;;;;;25.95;11.82;;;;;;;0.12;61.79;95793.22;6139530;23;20005;-85
2024/01/11 17:38:37;;;;;;;25.92;11.32;;;;;;;-0.20;62.79;95793.56;6162840;23;20008;-85
2024/01/11 17:41:03;;;;;;;30.45;12.27;;;;;;;-0.14;62.58;95784.66;6163430;23;20013;-85
2024/01/11 17:43:28;;;;;;;28.48;11.20;;;;;;;-0.72;64.17;95784.00;6204739;23;20028;-85
2024/01/11 17:45:54;;;;;;;25.45;11.55;;;;;;;-0.55;63.70;95776.16;6138561;23;20005;-85
2024/01/11 17:48:19;;;;;;;26.83;11.90;;;;;;;0.04;62.07;95787.78;6163258;23;20019;-85
2024/01/11 17:50:45;;;;;;;28.10;12.20;;;;;;;0.16;61.02;95777.56;6138836;23;20012;-85
2024/01/11 17:53:14;;;;;;;26.52;10.80;;;;;;;0.48;60.41;95800.25;6163261;23;20076;-85
2024/01/11 17:55:39;;;;;;;29.98;11.88;;;;;;;-0.02;61.26;95779.59;6210160;23;20051;-85
2024/01/11 17:58:05;;;;;;;27.58;12.13;;;;;;;0.19;60.84;95797.00;6163974;23;20012;-85
2024/01/11 18:00:31;;;;;;;28.95;12.07;;;;;;;-0.02;62.19;95782.16;6163761;23;20005;-84
2024/01/11 18:02:57;;;;;;;28.42;12.25;;;;;;;-0.10;61.58;95774.13;6139220;23;20013;-85
2024/01/11 18:07:49;;;;;;;26.27;11.55;;;;;;;0.36;60.68;95785.69;6157789;23;20017;-85
2024/01/11 18:10:17;;;;;;;26.45;12.32;;;;;;;0.35;60.77;95786.63;6133852;23;20064;-85
2024/01/11 18:12:43;;;;;;;25.10;11.95;;;;;;;0.11;61.20;95794.94;6159608;23;20009;-85
2024/01/11 18:15:12;;;;;;;27.35;12.00;;;;;;;0.31;60.43;95800.53;6133844;23;20005;-85
2024/01/11 18:17:40;;;;;;;25.30;11.32;;;;;;;0.31;60.64;95796.22;6109918;23;20079;-85
2024/01/11 18:20:08;;;;;;;27.90;11.77;;;;;;;0.03;60.88;95801.50;6184208;23;20024;-85
2024/01/11 18:22:33;;;;;;;26.65;12.15;;;;;;;0.56;59.97;95821.03;6187521;23;20004;-85
2024/01/11 18:24:59;;;;;;;26.50;11.82;;;;;;;0.55;59.79;95819.41;6163616;23;20009;-85
2024/01/11 18:27:24;;;;;;;28.60;12.45;;;;;;;1.00;58.85;95801.03;6188256;23;20007;-85
2024/01/11 18:32:15;;;;;;;28.73;12.48;;;;;;;0.60;59.77;95808.84;6154482;23;20013;-85
2024/01/11 18:34:43;;;;;;;27.92;11.88;;;;;;;0.43;60.09;95809.94;6132238;23;20016;-85
2024/01/11 18:37:08;;;;;;;26.88;12.15;;;;;;;0.54;60.30;95811.81;6157683;23;20009;-85
2024/01/11 18:39:41;;;;;;;29.50;13.05;;;;;;;0.80;58.92;95802.41;6132903;23;20016;-84
2024/01/11 18:42:09;;;;;;;26.40;10.93;;;;;;;1.00;58.07;95798.47;6158796;23;20039;-85
2024/01/11 18:44:35;;;;;;;29.40;12.00;;;;;;;0.57;59.78;95807.31;6157580;23;20009;-85
2024/01/11 18:47:00;;;;;;;29.30;11.88;;;;;;;0.80;59.35;95811.81;6108535;23;20040;-85
2024/01/11 18:49:28;;;;;;;28.33;12.32;;;;;;;0.69;59.32;95798.00;6156885;23;20080;-85
2024/01/11 18:51:54;;;;;;;27.65;13.07;;;;;;;0.77;59.21;95788.06;6157589;23;20059;-85
2024/01/11 18:54:20;;;;;;;28.95;12.35;;;;;;;0.82;59.37;95792.88;6157960;23;20001;-85
2024/01/11 18:56:45;;;;;;;31.98;13.30;;;;;;;0.70;59.33;95799.63;6158346;23;20009;-85
2024/01/11 19:04:21;;;;;;;28.27;12.60;;;;;;;0.56;59.99;95795.44;6213060;23;20024;-84
2024/01/11 19:06:49;;;;;;;30.33;12.93;;;;;;;0.52;59.95;95808.53;6162503;23;20009;-84
2024/01/11 19:09:18;;;;;;;27.05;11.15;;;;;;;0.39;60.70;95829.81;6163454;23;20008;-85
2024/01/11 19:11:44;;;;;;;26.83;12.40;;;;;;;0.32;60.70;95825.19;6187454;23;20012;-85
2024/01/11 19:14:13;;;;;;;32.03;13.00;;;;;;;0.32;60.41;95815.75;6138278;23;20016;-85
2024/01/11 19:16:38;;;;;;;31.83;12.98;;;;;;;0.36;60.76;95826.63;6139088;23;20008;-85
2024/01/11 19:19:06;;;;;;;32.38;15.70;;;;;;;-0.63;63.87;95829.44;6138355;23;20009;-85
2024/01/11 19:21:32;;;;;;;29.55;11.65;;;;;;;-0.16;63.18;95822.31;6163275;23;20059;-85
2024/01/11 19:23:57;;;;;;;32.08;14.95;;;;;;;-0.16;62.66;95807.78;6162363;23;20012;-85
2024/01/11 19:26:26;;;;;;;31.65;12.95;;;;;;;-0.01;62.00;95824.69;6137993;23;20062;-85